Ashland, AL

8:11 AM CDT on July 30, 2014 (GMT -0500)
RAWS TALLADEGA AL US (MTLDA1) Elev 600 ft | 33.44 °N, 86.08 °W | Change Station

Current weather conditions updated 45 minutes ago

Clear
Clear
57 °F
Feels Like 57 °F
N
1
Wind Variable Wind from ESE
Gusts 2.0 mph

Today is forecast to be nearly the same temperature as yesterday.

Today
High -- | Low -- °F
--% Chance of Precip.
Yesterday
High -- | Low -- °F
Precip. -- in
5:54 AM 7:44 PM
Waxing Crescent, 11% visible
Pressure 30.07 in
Visibility 10.0 miles
Clouds Clear
Dew Point 56 °F
Humidity 95%
Rainfall 0.00 in
Snow Depth Not available.
UV 2 out of 12
Pollen 3.80 out of 12
Air Quality Not available.
Flu Activity Not available.
METAR KANB 301253Z AUTO 00000KT 10SM CLR 18/14 A3009 RMK AO2 SLP182 T01780139

More Conditions Fewer Conditions

Pressure 30.07 in
Visibility 10.0 miles
Clouds Clear
Dew Point 56 °F
Humidity 95%
Rainfall 0.00 in
Snow Depth Not available.
UV 2 out of 12
Pollen 3.80 out of 12
Air Quality Not available.
Flu Activity Not available.
METAR KANB 301253Z AUTO 00000KT 10SM CLR 18/14 A3009 RMK AO2 SLP182 T01780139

More Conditions Fewer Conditions

10-Day Weather Forecast

Almanac

Astronomy

Jul. 30, 2014 Rise Set
Actual Time 5:54 AM CDT 7:44 PM CDT
Civil Twilight 5:27 AM CDT 8:11 PM CDT
Nautical Twilight 4:54 AM CDT 8:44 PM CDT
Astronomical Twilight 4:19 AM CDT 9:19 PM CDT
Moon 9:12 AM CDT 9:41 PM CDT
Length of Visible Light 14h 43m
Length of Day
13h 49m
Tomorrow will be 1m 30s shorter.
Waxing Crescent, 11% of the Moon is Illuminated
Today
Waxing Crescent
Aug 3
First Quarter
Aug 10
Full
Aug 17
Last Quarter
Aug 25
New

Today's Extremes

State Highs State Lows

Community

WunderPhotos

Upload Photos

1,739,076 photos uploaded!

Nearby

Snow Depth

Station Depth Elevation
No new snow has been reported.

Earthquake Activity

City Distance Mag. Time & Date
No recent earthquake activity has been reported nearby.
Minimum magnitude displayed is 2.5.

Coastal Water Temperatures

Place Temperature
No Stations Reporting

Nearby Weather Stations

Station Location Temp. Dew Point Humidity Wind Precip. Elev Updated Type
RAWS TALLADEGA AL, Talladega, AL 57 °F 56 °F 95% ESE  at  1 mph 0.00 in / hr 600 ft 7:26 AM CDT MADIS
MesoWest WEDOWEE , Wedowee, AL 52 °F 51 °F 97% South  at  1 mph 0.00 in / hr 934 ft 6:00 AM CDT MADIS
Talladega, AL 63.1 °F 59 °F 85% ESE  at  0.0 mph 0.00 in / hr 596 ft 8:07 AM CDT Normal
Wesson Aviation, Oxford, AL 65.0 °F 58 °F 78% North  at  5.0 mph 0.00 in / hr 659 ft 8:02 AM CDT Normal
Chulafinnee, AL 65.1 °F 29 °F 26% North  at  0.0 mph 0.00 in / hr 928 ft 8:11 AM CDT Rapid Fire
Sycamore,Alabama, Sycamore, AL 62.1 °F 59 °F 91% NW  at  2.2 mph 0.00 in / hr 552 ft 8:11 AM CDT Rapid Fire
HCN TALLADEGA AIRPORT 10 NNE AL , Lincoln, AL 56 °F - - North  at  - 0.00 in / hr 525 ft 6:40 AM CDT MADIS
Coldwater, Eastaboga, AL 63.5 °F 59 °F 84% ESE  at  3.0 mph 0.00 in / hr 623 ft 7:52 AM CDT Normal

Show More Stations Show Fewer Stations